createdAt,value
2018-05-21T00:02:02.345Z,102033.48
2018-05-21T00:04:29.825Z,102037.05
2018-05-21T00:06:57.351Z,102037.48
2018-05-21T00:09:25.798Z,102036.22
2018-05-21T00:11:53.312Z,102038.46
2018-05-21T00:14:20.809Z,102034.72
2018-05-21T00:16:48.482Z,102031.02
2018-05-21T00:19:15.916Z,102028.69
2018-05-21T00:21:43.408Z,102023.88
2018-05-21T00:24:10.934Z,102011.78
2018-05-21T00:26:38.429Z,102015.85
2018-05-21T00:29:05.963Z,102013.39
2018-05-21T00:31:34.059Z,102009.59
2018-05-21T00:34:01.530Z,102008.75
2018-05-21T00:36:29.034Z,102011.75
2018-05-21T00:38:56.510Z,102009.46
2018-05-21T00:41:24.168Z,102001.59
2018-05-21T00:43:51.663Z,101999.84
2018-05-21T00:46:19.185Z,101996.22
2018-05-21T00:48:46.667Z,101998.06
2018-05-21T00:51:14.170Z,102001.09
2018-05-21T00:53:41.677Z,101998.59
2018-05-21T00:56:09.158Z,102008.21
2018-05-21T00:58:36.673Z,102000.27
2018-05-21T01:01:04.144Z,102003.56
2018-05-21T01:03:31.664Z,102005.56
2018-05-21T01:05:59.157Z,101999.41
2018-05-21T01:08:26.679Z,101997.98
2018-05-21T01:10:54.289Z,102004.81
2018-05-21T01:13:21.788Z,101997.94
2018-05-21T01:15:49.300Z,101997.27
2018-05-21T01:18:16.783Z,101995.67
2018-05-21T01:20:44.332Z,101999.63
2018-05-21T01:23:11.898Z,101997.95
2018-05-21T01:25:39.379Z,101992.78
2018-05-21T01:28:06.887Z,101998.31
2018-05-21T01:30:34.412Z,101998.28
2018-05-21T01:33:01.907Z,101995.14
2018-05-21T01:35:29.399Z,101990.13
2018-05-21T01:37:56.904Z,101989.02
2018-05-21T01:40:24.441Z,101990.31
2018-05-21T01:42:51.943Z,101992.89
2018-05-21T01:45:19.433Z,101987.91
2018-05-21T01:47:46.917Z,101991.64
2018-05-21T01:50:14.444Z,101989.39
2018-05-21T01:52:41.916Z,101987.30
2018-05-21T01:55:09.416Z,101989.70
2018-05-21T01:57:36.888Z,101984.69
2018-05-21T02:00:04.499Z,101984.44
2018-05-21T02:02:31.969Z,101983.09
2018-05-21T02:04:59.470Z,101986.97
2018-05-21T02:07:26.975Z,101981.52
2018-05-21T02:09:54.492Z,101983.21
2018-05-21T02:12:21.979Z,101984.98
2018-05-21T02:14:49.471Z,101985.92
2018-05-21T02:17:16.985Z,101985.95
2018-05-21T02:19:44.579Z,101986.63
2018-05-21T02:22:12.084Z,101987.04
2018-05-21T02:24:39.573Z,101980.02
2018-05-21T02:27:07.174Z,101985.28
2018-05-21T02:29:34.631Z,101986.33
2018-05-21T02:32:02.161Z,101983.75
2018-05-21T02:34:29.686Z,101985.11
2018-05-21T02:36:57.167Z,101987.84
2018-05-21T02:39:24.688Z,101986.53
2018-05-21T02:41:52.169Z,101990.29
2018-05-21T02:44:19.670Z,101979.95
2018-05-21T02:46:47.136Z,101990.34
2018-05-21T02:49:14.619Z,101984.58
2018-05-21T02:51:42.161Z,101983.89
2018-05-21T02:54:09.656Z,101983.92
2018-05-21T02:56:37.137Z,101978.59
2018-05-21T02:59:04.625Z,101988.05
2018-05-21T03:01:32.240Z,101987.42
2018-05-21T03:03:59.730Z,101982.72
2018-05-21T03:06:27.212Z,101983.28
2018-05-21T03:08:54.725Z,101991.48
2018-05-21T03:11:22.236Z,101990.75
2018-05-21T03:13:49.718Z,101987.41
2018-05-21T03:16:17.231Z,101984.84
2018-05-21T03:18:44.797Z,101984.30
2018-05-21T03:21:12.274Z,101982.59
2018-05-21T03:23:39.813Z,101973.77
2018-05-21T03:26:07.314Z,101973.13
2018-05-21T03:28:34.784Z,101970.28
2018-05-21T03:31:02.303Z,101976.32
2018-05-21T03:33:29.786Z,101974.98
2018-05-21T03:35:57.260Z,101978.05
2018-05-21T03:38:24.757Z,101978.22
2018-05-21T03:40:52.366Z,101976.41
2018-05-21T03:43:19.870Z,101973.00
2018-05-21T03:45:47.367Z,101977.66
2018-05-21T03:48:14.917Z,101967.28
2018-05-21T03:50:42.443Z,101976.66
2018-05-21T03:53:09.958Z,101973.48
2018-05-21T03:55:37.442Z,101974.11
2018-05-21T03:58:05.340Z,101970.72
2018-05-21T04:00:44.757Z,101971.87
2018-05-21T04:03:24.253Z,101974.59
2018-05-21T04:05:51.746Z,101969.94
2018-05-21T04:08:19.223Z,101974.20
2018-05-21T04:10:46.746Z,101973.86
2018-05-21T04:13:14.249Z,101973.58
2018-05-21T04:15:41.781Z,101971.06
2018-05-21T04:18:09.251Z,101970.28
2018-05-21T04:20:36.750Z,101967.09
2018-05-21T04:23:04.275Z,101961.97
2018-05-21T04:25:32.225Z,101975.19
2018-05-21T04:27:59.699Z,101964.97
2018-05-21T04:30:27.201Z,101970.20
2018-05-21T04:32:54.684Z,101962.55
2018-05-21T04:35:22.783Z,101965.89
2018-05-21T04:37:50.273Z,101966.81
2018-05-21T04:40:17.747Z,101967.53
2018-05-21T04:42:45.240Z,101966.80
2018-05-21T04:45:12.725Z,101963.61
2018-05-21T04:47:40.237Z,101963.83
2018-05-21T04:50:08.344Z,101968.60
2018-05-21T04:52:35.902Z,101965.25
2018-05-21T04:55:03.444Z,101969.52
2018-05-21T04:57:30.932Z,101970.02
2018-05-21T04:59:58.446Z,101973.75
2018-05-21T05:02:25.939Z,101974.28
2018-05-21T05:04:53.440Z,101975.39
2018-05-21T05:07:20.947Z,101971.06
2018-05-21T05:09:48.492Z,101962.23
2018-05-21T05:12:15.969Z,101967.57
2018-05-21T05:14:43.481Z,101972.76
2018-05-21T05:17:11.003Z,101969.66
2018-05-21T05:19:38.475Z,101963.31
2018-05-21T05:22:05.987Z,101965.10
2018-05-21T05:24:33.503Z,101962.81
2018-05-21T05:27:00.977Z,101961.53
2018-05-21T05:29:28.498Z,101960.59
2018-05-21T05:31:55.964Z,101966.89
2018-05-21T05:34:23.482Z,101959.22
2018-05-21T05:36:50.976Z,101962.66
2018-05-21T05:39:18.504Z,101955.10
2018-05-21T05:41:45.987Z,101950.02
2018-05-21T05:44:13.480Z,101948.13
2018-05-21T05:46:41.049Z,101950.56
2018-05-21T05:49:08.543Z,101937.40
2018-05-21T05:51:36.044Z,101941.06
2018-05-21T05:54:03.553Z,101935.00
2018-05-21T05:56:31.054Z,101935.95
2018-05-21T05:58:58.622Z,101943.89
2018-05-21T06:01:26.172Z,101941.72
2018-05-21T06:03:53.673Z,101941.58
2018-05-21T06:06:21.192Z,101938.42
2018-05-21T06:08:48.679Z,101941.29
2018-05-21T06:11:16.191Z,101938.72
2018-05-21T06:13:43.717Z,101936.91
2018-05-21T06:16:11.225Z,101938.30
2018-05-21T06:18:38.721Z,101935.34
2018-05-21T06:21:06.205Z,101928.23
2018-05-21T06:23:33.774Z,101928.34
2018-05-21T06:26:01.314Z,101927.36
2018-05-21T06:28:28.775Z,101931.63
2018-05-21T06:30:56.293Z,101921.30
2018-05-21T06:33:23.786Z,101923.80
2018-05-21T06:35:51.382Z,101927.36
2018-05-21T06:38:18.865Z,101922.80
2018-05-21T06:40:46.373Z,101927.48
2018-05-21T06:43:13.850Z,101922.81
2018-05-21T06:45:41.316Z,101923.47
2018-05-21T06:48:08.871Z,101933.09
2018-05-21T06:50:36.374Z,101927.31
2018-05-21T06:53:03.868Z,101922.31
2018-05-21T06:55:31.356Z,101922.41
2018-05-21T06:57:58.932Z,101921.66
2018-05-21T07:00:26.458Z,101919.94
2018-05-21T07:02:53.983Z,101925.13
2018-05-21T07:05:21.458Z,101924.03
2018-05-21T07:07:48.951Z,101918.05
2018-05-21T07:10:16.548Z,101918.23
2018-05-21T07:12:44.676Z,101916.97
2018-05-21T07:15:12.195Z,101910.38
2018-05-21T07:20:13.528Z,101911.66
2018-05-21T07:22:41.020Z,101912.02
2018-05-21T07:25:08.693Z,101910.48
2018-05-21T07:27:36.185Z,101902.11
2018-05-21T07:30:03.710Z,101902.91
2018-05-21T07:32:31.260Z,101890.34
2018-05-21T07:34:58.746Z,101896.54
2018-05-21T07:37:26.260Z,101888.38
2018-05-21T07:39:53.730Z,101889.44
2018-05-21T07:42:22.047Z,101885.18
2018-05-21T07:44:49.566Z,101886.91
2018-05-21T07:47:17.093Z,101884.50
2018-05-21T07:49:44.595Z,101880.66
2018-05-21T07:52:12.096Z,101874.34
2018-05-21T07:54:39.594Z,101869.56
2018-05-21T07:57:07.092Z,101872.12
2018-05-21T07:59:34.629Z,101864.32
2018-05-21T08:02:02.522Z,101873.31
2018-05-21T08:04:30.054Z,101867.80
2018-05-21T08:06:57.566Z,101869.80
2018-05-21T08:09:25.131Z,101861.91
2018-05-21T08:11:52.644Z,101856.77
2018-05-21T08:14:20.181Z,101857.23
2018-05-21T08:16:47.738Z,101860.24
2018-05-21T08:19:15.277Z,101856.98
2018-05-21T08:21:42.773Z,101852.92
2018-05-21T08:24:10.373Z,101856.50
2018-05-21T08:26:37.952Z,101854.59
2018-05-21T08:29:05.443Z,101847.97
2018-05-21T08:31:33.110Z,101846.34
2018-05-21T08:34:00.619Z,101841.72
2018-05-21T08:36:28.144Z,101843.55
2018-05-21T08:38:55.644Z,101838.91
2018-05-21T08:41:23.220Z,101839.27
2018-05-21T08:43:50.751Z,101832.44
2018-05-21T08:46:18.292Z,101836.98
2018-05-21T08:48:45.924Z,101822.04
2018-05-21T08:51:13.444Z,101820.72
2018-05-21T08:53:40.984Z,101815.00
2018-05-21T08:56:08.587Z,101818.62
2018-05-21T08:58:36.081Z,101821.20
2018-05-21T09:01:03.609Z,101806.43
2018-05-21T09:03:31.105Z,101808.48
2018-05-21T09:05:58.647Z,101801.70
2018-05-21T09:08:26.209Z,101800.59
2018-05-21T09:10:53.698Z,101799.52
2018-05-21T09:13:21.772Z,101791.99
2018-05-21T09:15:49.303Z,101792.72
2018-05-21T09:18:16.899Z,101792.31
2018-05-21T09:20:44.416Z,101782.73
2018-05-21T09:23:11.932Z,101771.59
2018-05-21T09:25:39.501Z,101772.95
2018-05-21T09:28:07.014Z,101774.20
2018-05-21T09:30:34.574Z,101760.83
2018-05-21T09:33:02.198Z,101768.36
2018-05-21T09:35:29.799Z,101769.59
2018-05-21T09:37:57.401Z,101770.38
2018-05-21T09:40:24.958Z,101765.37
2018-05-21T09:42:52.495Z,101761.42
2018-05-21T09:45:21.116Z,101755.64
2018-05-21T09:47:48.813Z,101749.48
2018-05-21T09:50:16.401Z,101741.13
2018-05-21T09:52:43.941Z,101749.71
2018-05-21T09:55:11.458Z,101738.80
2018-05-21T09:57:38.953Z,101730.26
2018-05-21T10:00:06.589Z,101735.98
2018-05-21T10:02:34.085Z,101729.81
2018-05-21T10:05:01.627Z,101720.43
2018-05-21T10:07:29.228Z,101722.49
2018-05-21T10:09:56.720Z,101710.92
2018-05-21T10:12:24.963Z,101714.45
2018-05-21T10:14:52.478Z,101710.41
2018-05-21T10:17:20.159Z,101709.61
2018-05-21T10:19:47.703Z,101700.83
2018-05-21T10:22:15.243Z,101701.33
2018-05-21T10:24:42.751Z,101696.15
2018-05-21T10:27:10.499Z,101699.92
2018-05-21T10:29:38.094Z,101687.61
2018-05-21T10:32:05.625Z,101680.34
2018-05-21T10:34:33.165Z,101681.77
2018-05-21T10:37:00.758Z,101673.47
2018-05-21T10:39:28.189Z,101671.11
2018-05-21T10:41:55.691Z,101670.87
2018-05-21T10:44:23.265Z,101675.70
2018-05-21T10:46:50.774Z,101671.70
2018-05-21T10:49:18.347Z,101668.31
2018-05-21T10:51:45.839Z,101658.73
2018-05-21T10:54:13.362Z,101663.96
2018-05-21T10:56:40.850Z,101651.16
2018-05-21T10:59:08.330Z,101653.52
2018-05-21T11:01:35.915Z,101651.58
2018-05-21T11:04:03.413Z,101640.69
2018-05-21T11:06:30.962Z,101643.66
2018-05-21T11:08:58.613Z,101634.20
2018-05-21T11:11:26.179Z,101633.02
2018-05-21T11:14:00.528Z,101629.64
2018-05-21T11:16:28.223Z,101625.78
2018-05-21T11:18:55.867Z,101625.74
2018-05-21T11:21:23.432Z,101627.85
2018-05-21T11:23:51.827Z,101631.06
2018-05-21T11:26:19.395Z,101618.15
2018-05-21T11:28:46.918Z,101607.45
2018-05-21T11:31:14.410Z,101612.55
2018-05-21T11:33:42.102Z,101614.01
2018-05-21T11:36:09.596Z,101603.64
2018-05-21T11:38:37.199Z,101603.59
2018-05-21T11:41:04.744Z,101593.45
2018-05-21T11:43:32.312Z,101598.16
2018-05-21T11:45:59.821Z,101598.75
2018-05-21T11:48:27.305Z,101581.91
2018-05-21T11:50:54.811Z,101576.78
2018-05-21T11:53:22.305Z,101579.17
2018-05-21T11:55:50.107Z,101577.08
2018-05-21T12:00:55.202Z,101570.17
2018-05-21T12:03:22.824Z,101562.02
2018-05-21T12:05:54.604Z,101553.98
2018-05-21T12:08:22.092Z,101547.27
2018-05-21T12:13:42.378Z,101548.75
2018-05-21T12:16:09.891Z,101533.50
2018-05-21T12:18:39.019Z,101535.37
2018-05-21T12:21:06.530Z,101530.08
2018-05-21T12:23:34.079Z,101532.72
2018-05-21T12:26:01.572Z,101524.13
2018-05-21T12:28:29.129Z,101524.06
2018-05-21T12:30:56.724Z,101517.99
2018-05-21T12:33:24.326Z,101507.98
2018-05-21T12:35:51.853Z,101513.14
2018-05-21T12:38:19.393Z,101514.53
2018-05-21T12:40:46.909Z,101516.59
2018-05-21T12:43:14.623Z,101502.27
2018-05-21T12:45:42.264Z,101498.88
2018-05-21T12:48:09.942Z,101506.64
2018-05-21T12:50:37.460Z,101498.47
2018-05-21T12:53:04.956Z,101499.34
2018-05-21T12:55:32.462Z,101492.31
2018-05-21T12:58:00.022Z,101490.45
2018-05-21T13:00:27.532Z,101482.62
2018-05-21T13:02:55.001Z,101485.36
2018-05-21T13:05:22.481Z,101493.45
2018-05-21T13:07:50.127Z,101477.92
2018-05-21T13:10:17.612Z,101475.45
2018-05-21T13:12:48.372Z,101464.45
2018-05-21T13:15:15.899Z,101470.16
2018-05-21T13:17:43.503Z,101464.67
2018-05-21T13:20:12.479Z,101468.88
2018-05-21T13:23:14.115Z,101459.28
2018-05-21T13:25:41.716Z,101457.59
2018-05-21T13:28:09.273Z,101453.59
2018-05-21T13:30:40.620Z,101448.58
2018-05-21T13:33:08.086Z,101450.23
2018-05-21T13:35:35.882Z,101446.36
2018-05-21T13:38:03.397Z,101447.92
2018-05-21T13:40:30.940Z,101437.16
2018-05-21T13:42:58.485Z,101432.80
2018-05-21T13:45:26.014Z,101437.28
2018-05-21T13:47:53.526Z,101426.08
2018-05-21T13:50:21.001Z,101430.44
2018-05-21T13:52:48.559Z,101424.98
2018-05-21T13:55:16.154Z,101425.77
2018-05-21T13:57:43.655Z,101424.38
2018-05-21T14:00:11.152Z,101424.69
2018-05-21T14:02:38.704Z,101415.33
2018-05-21T14:05:06.209Z,101410.01
2018-05-21T14:07:33.723Z,101411.92
2018-05-21T14:10:01.202Z,101411.71
2018-05-21T14:12:28.813Z,101408.33
2018-05-21T14:14:56.300Z,101411.30
2018-05-21T14:17:23.787Z,101408.45
2018-05-21T14:19:51.357Z,101399.90
2018-05-21T14:22:18.861Z,101401.31
2018-05-21T14:24:46.392Z,101393.58
2018-05-21T14:27:13.891Z,101391.22
2018-05-21T14:29:41.827Z,101381.88
2018-05-21T14:32:09.310Z,101386.48
2018-05-21T14:34:36.898Z,101378.55
2018-05-21T14:37:04.547Z,101379.20
2018-05-21T14:39:32.042Z,101373.30
2018-05-21T14:42:00.449Z,101365.84
2018-05-21T14:44:27.915Z,101365.84
2018-05-21T14:49:55.375Z,101356.05
2018-05-21T14:52:22.915Z,101348.79
2018-05-21T14:54:51.147Z,101357.34
2018-05-21T14:57:18.577Z,101365.28
2018-05-21T14:59:46.855Z,101356.70
2018-05-21T15:02:17.056Z,101352.61
2018-05-21T15:04:44.648Z,101345.17
2018-05-21T15:07:12.134Z,101344.16
2018-05-21T15:09:40.235Z,101338.30
2018-05-21T15:15:00.068Z,101326.34
2018-05-21T15:17:27.556Z,101324.41
2018-05-21T15:19:55.082Z,101321.34
2018-05-21T15:22:22.632Z,101324.62
2018-05-21T15:24:50.104Z,101327.11
2018-05-21T15:27:17.636Z,101323.36
2018-05-21T15:29:47.084Z,101321.45
2018-05-21T15:32:17.382Z,101314.27
2018-05-21T15:34:44.899Z,101317.08
2018-05-21T15:37:12.414Z,101319.42
2018-05-21T15:39:39.903Z,101320.78
2018-05-21T15:42:07.457Z,101311.55
2018-05-21T15:44:34.928Z,101315.53
2018-05-21T15:47:02.732Z,101309.60
2018-05-21T15:49:30.201Z,101299.44
2018-05-21T15:51:57.741Z,101298.48
2018-05-21T15:54:25.253Z,101294.25
2018-05-21T15:56:52.779Z,101292.31
2018-05-21T15:59:20.255Z,101293.85
2018-05-21T16:01:47.738Z,101290.63
2018-05-21T16:04:15.306Z,101296.12
2018-05-21T16:06:42.786Z,101295.80
2018-05-21T16:09:10.316Z,101287.31
2018-05-21T16:11:37.834Z,101284.95
2018-05-21T16:14:05.371Z,101280.03
2018-05-21T16:16:32.845Z,101285.61
2018-05-21T16:19:00.354Z,101283.49
2018-05-21T16:21:27.860Z,101281.25
2018-05-21T16:23:55.464Z,101281.49
2018-05-21T16:26:22.964Z,101277.84
2018-05-21T16:28:50.449Z,101275.16
2018-05-21T16:31:18.074Z,101277.09
2018-05-21T16:33:45.614Z,101276.86
2018-05-21T16:36:13.123Z,101276.80
2018-05-21T16:38:40.706Z,101270.87
2018-05-21T16:41:08.195Z,101273.22
2018-05-21T16:43:35.720Z,101273.97
2018-05-21T16:46:03.206Z,101266.21
2018-05-21T16:48:30.753Z,101262.62
2018-05-21T16:50:58.260Z,101259.31
2018-05-21T16:53:25.771Z,101257.54
2018-05-21T16:55:53.261Z,101259.88
2018-05-21T16:58:20.769Z,101260.20
2018-05-21T17:00:48.261Z,101260.69
2018-05-21T17:03:15.787Z,101256.14
2018-05-21T17:05:43.311Z,101253.81
2018-05-21T17:08:10.789Z,101261.16
2018-05-21T17:10:38.287Z,101253.95
2018-05-21T17:13:05.810Z,101258.02
2018-05-21T17:16:12.224Z,101257.92
2018-05-21T17:18:39.707Z,101257.29
2018-05-21T17:21:07.219Z,101257.27
2018-05-21T17:23:34.704Z,101251.88
2018-05-21T17:26:02.220Z,101253.87
2018-05-21T17:28:29.717Z,101250.72
2018-05-21T17:30:57.226Z,101261.81
2018-05-21T17:33:24.733Z,101255.75
2018-05-21T17:35:52.249Z,101255.52
2018-05-21T17:38:19.724Z,101253.00
2018-05-21T17:40:47.237Z,101251.55
2018-05-21T17:43:14.715Z,101255.16
2018-05-21T17:45:42.201Z,101256.39
2018-05-21T17:48:09.732Z,101255.19
2018-05-21T17:50:37.230Z,101256.95
2018-05-21T17:53:04.749Z,101248.78
2018-05-21T17:55:32.220Z,101246.27
2018-05-21T17:57:59.738Z,101250.30
2018-05-21T18:00:27.304Z,101251.53
2018-05-21T18:02:54.814Z,101256.20
2018-05-21T18:05:22.308Z,101258.70
2018-05-21T18:07:49.803Z,101244.33
2018-05-21T18:10:17.374Z,101247.02
2018-05-21T18:12:44.874Z,101254.23
2018-05-21T18:15:12.386Z,101248.52
2018-05-21T18:17:39.876Z,101248.69
2018-05-21T18:20:07.400Z,101251.38
2018-05-21T18:22:34.897Z,101249.54
2018-05-21T18:25:02.505Z,101245.71
2018-05-21T18:27:30.006Z,101248.17
2018-05-21T18:29:57.512Z,101247.28
2018-05-21T18:32:24.989Z,101248.22
2018-05-21T18:34:52.517Z,101251.52
2018-05-21T18:37:20.000Z,101246.51
2018-05-21T18:39:47.536Z,101243.11
2018-05-21T18:42:15.082Z,101246.64
2018-05-21T18:44:42.588Z,101251.59
2018-05-21T18:47:10.136Z,101246.13
2018-05-21T18:49:37.713Z,101245.88
2018-05-21T18:52:06.397Z,101248.09
2018-05-21T18:54:46.920Z,101246.86
2018-05-21T18:57:14.416Z,101246.12
2018-05-21T18:59:46.740Z,101241.27
2018-05-21T19:02:21.721Z,101252.12
2018-05-21T19:04:49.252Z,101245.48
2018-05-21T19:07:17.523Z,101252.58
2018-05-21T19:09:45.033Z,101248.55
2018-05-21T19:12:12.609Z,101253.22
2018-05-21T19:14:40.089Z,101254.11
2018-05-21T19:17:07.611Z,101251.13
2018-05-21T19:19:35.120Z,101251.02
2018-05-21T19:22:02.702Z,101252.38
2018-05-21T19:24:30.199Z,101255.14
2018-05-21T19:26:57.690Z,101251.55
2018-05-21T19:29:25.903Z,101251.94
2018-05-21T19:31:53.417Z,101255.16
2018-05-21T19:34:20.937Z,101251.06
2018-05-21T19:36:48.424Z,101249.73
2018-05-21T19:39:15.914Z,101253.53
2018-05-21T19:41:43.428Z,101248.45
2018-05-21T19:44:10.935Z,101258.05
2018-05-21T19:46:38.522Z,101256.66
2018-05-21T19:49:05.983Z,101255.77
2018-05-21T19:51:33.483Z,101253.11
2018-05-21T19:54:00.972Z,101257.18
2018-05-21T19:56:28.484Z,101257.80
2018-05-21T19:58:56.080Z,101259.55
2018-05-21T20:01:23.580Z,101259.51
2018-05-21T20:03:51.073Z,101256.27
2018-05-21T20:06:18.673Z,101254.92
2018-05-21T20:08:46.232Z,101252.62
2018-05-21T20:11:13.790Z,101260.58
2018-05-21T20:13:41.338Z,101255.24
2018-05-21T20:16:08.773Z,101257.21
2018-05-21T20:18:36.304Z,101262.64
2018-05-21T20:21:03.993Z,101257.29
2018-05-21T20:23:31.543Z,101264.50
2018-05-21T20:25:59.041Z,101261.23
2018-05-21T20:28:26.572Z,101258.92
2018-05-21T20:30:54.116Z,101263.27
2018-05-21T20:33:21.628Z,101258.42
2018-05-21T20:35:49.186Z,101259.08
2018-05-21T20:38:16.789Z,101258.53
2018-05-21T20:40:44.291Z,101264.17
2018-05-21T20:43:11.807Z,101258.53
2018-05-21T20:45:39.300Z,101263.70
2018-05-21T20:48:06.843Z,101260.28
2018-05-21T20:50:34.367Z,101266.03
2018-05-21T20:53:02.511Z,101262.42
2018-05-21T20:55:30.019Z,101259.72
2018-05-21T20:57:57.532Z,101257.02
2018-05-21T21:00:25.028Z,101263.46
2018-05-21T21:02:52.511Z,101257.75
2018-05-21T21:05:20.159Z,101259.69
2018-05-21T21:07:47.655Z,101264.98
2018-05-21T21:10:15.188Z,101265.18
2018-05-21T21:12:42.692Z,101261.48
2018-05-21T21:15:10.265Z,101261.08
2018-05-21T21:17:37.807Z,101261.02
2018-05-21T21:20:05.286Z,101260.27
2018-05-21T21:22:32.905Z,101263.28
2018-05-21T21:25:00.456Z,101261.61
2018-05-21T21:27:27.997Z,101265.36
2018-05-21T21:29:55.599Z,101266.53
2018-05-21T21:32:23.176Z,101265.73
2018-05-21T21:34:50.680Z,101262.23
2018-05-21T21:37:18.201Z,101269.88
2018-05-21T21:39:45.678Z,101271.16
2018-05-21T21:42:13.196Z,101264.19
2018-05-21T21:44:40.763Z,101261.28
2018-05-21T21:47:08.186Z,101256.78
2018-05-21T21:49:35.684Z,101258.77
2018-05-21T21:52:03.157Z,101259.65
2018-05-21T21:54:30.669Z,101260.10
2018-05-21T21:56:58.154Z,101258.05
2018-05-21T21:59:26.238Z,101249.41
2018-05-21T22:01:53.738Z,101253.67
2018-05-21T22:04:21.245Z,101249.50
2018-05-21T22:06:48.739Z,101244.94
2018-05-21T22:09:16.266Z,101242.66
2018-05-21T22:11:43.762Z,101242.84
2018-05-21T22:14:11.355Z,101244.60
2018-05-21T22:16:38.848Z,101250.51
2018-05-21T22:19:06.341Z,101242.77
2018-05-21T22:21:33.852Z,101249.58
2018-05-21T22:24:01.446Z,101245.44
2018-05-21T22:26:28.947Z,101241.65
2018-05-21T22:28:56.476Z,101246.66
2018-05-21T22:31:24.037Z,101240.72
2018-05-21T22:33:51.514Z,101242.58
2018-05-21T22:36:19.056Z,101243.64
2018-05-21T22:38:46.645Z,101239.66
2018-05-21T22:41:14.117Z,101238.50
2018-05-21T22:43:41.691Z,101232.93
2018-05-21T22:46:09.178Z,101227.89
2018-05-21T22:48:36.771Z,101231.41
2018-05-21T22:51:04.255Z,101229.09
2018-05-21T22:53:31.788Z,101225.01
2018-05-21T22:55:59.268Z,101226.58
2018-05-21T22:58:26.788Z,101223.56
2018-05-21T23:00:54.281Z,101220.59
2018-05-21T23:03:21.770Z,101222.67
2018-05-21T23:05:49.292Z,101221.63
2018-05-21T23:08:16.806Z,101222.33
2018-05-21T23:10:44.349Z,101219.10
2018-05-21T23:13:11.862Z,101212.29
2018-05-21T23:15:39.333Z,101213.28
2018-05-21T23:18:06.853Z,101212.66
2018-05-21T23:20:34.343Z,101214.54
2018-05-21T23:23:01.864Z,101210.81
2018-05-21T23:25:29.357Z,101214.05
2018-05-21T23:27:56.896Z,101210.22
2018-05-21T23:30:24.544Z,101210.92
2018-05-21T23:32:52.032Z,101210.71
2018-05-21T23:35:19.598Z,101204.87
2018-05-21T23:37:47.091Z,101212.98
2018-05-21T23:40:14.654Z,101208.56
2018-05-21T23:42:42.138Z,101211.01
2018-05-21T23:45:09.617Z,101208.58
2018-05-21T23:47:37.111Z,101208.50
2018-05-21T23:50:04.582Z,101201.17
2018-05-21T23:52:32.079Z,101206.78
2018-05-21T23:54:59.548Z,101204.30
2018-05-21T23:57:27.050Z,101201.89
2018-05-21T23:59:54.620Z,101191.25
